Time;durP1;ratioP1;P1;durP2;ratioP2;P2;SDS_P1;SDS_P2;PMS_P1;PMS_P2;Temp;Humidity;BMP_temperature;BMP_pressure;BME280_temperature;BME280_humidity;BME280_pressure;Samples;Min_cycle;Max_cycle;Signal;HPM_P1;HPM_P2
2023/04/05 00:02:04;;;;;;;11.50;7.50;;;;;;;3.01;77.70;102399.91;5033938;28;20029;-81
2023/04/05 00:04:33;;;;;;;14.48;8.10;;;;;;;2.99;77.77;102415.69;5035564;28;20022;-81
2023/04/05 00:07:01;;;;;;;11.88;7.63;;;;;;;2.95;77.61;102420.13;5024883;28;20022;-81
2023/04/05 00:09:27;;;;;;;11.40;7.45;;;;;;;2.92;77.99;102421.94;5040409;28;20463;-81
2023/04/05 00:11:52;;;;;;;10.88;7.63;;;;;;;2.87;78.08;102415.94;5039171;28;20045;-81
2023/04/05 00:14:18;;;;;;;13.82;8.60;;;;;;;2.81;78.13;102421.28;5052957;28;20038;-81
2023/04/05 00:16:43;;;;;;;12.15;7.97;;;;;;;2.77;78.49;102417.84;5054487;28;20037;-81
2023/04/05 00:19:11;;;;;;;13.85;8.02;;;;;;;2.74;78.38;102420.53;5055275;28;20026;-81
2023/04/05 00:21:38;;;;;;;13.25;8.02;;;;;;;2.69;78.53;102420.59;5040849;28;20041;-81
2023/04/05 00:24:04;;;;;;;14.65;8.10;;;;;;;2.66;78.63;102409.31;5053100;28;20106;-81
2023/04/05 00:26:29;;;;;;;11.30;8.15;;;;;;;2.57;79.30;102415.59;5036912;28;20057;-81
2023/04/05 00:28:54;;;;;;;13.35;8.38;;;;;;;2.54;79.03;102411.25;5033879;28;20034;-81
2023/04/05 00:31:20;;;;;;;11.80;8.35;;;;;;;2.52;79.37;102414.81;5042602;28;20084;-82
2023/04/05 00:33:46;;;;;;;12.38;8.50;;;;;;;2.48;79.62;102402.63;5042750;28;20022;-82
2023/04/05 00:36:12;;;;;;;11.77;8.48;;;;;;;2.41;79.32;102409.75;5041273;28;20036;-82
2023/04/05 00:38:42;;;;;;;12.60;7.65;;;;;;;2.38;80.34;102407.16;5041605;28;20053;-81
2023/04/05 00:41:08;;;;;;;12.68;8.65;;;;;;;2.36;80.06;102401.09;5033833;28;20026;-81
2023/04/05 00:43:33;;;;;;;11.43;7.88;;;;;;;2.32;80.36;102405.53;5033339;28;20045;-81
2023/04/05 00:46:00;;;;;;;15.35;8.60;;;;;;;2.28;79.97;102401.25;5031153;28;20033;-82
2023/04/05 00:48:25;;;;;;;13.02;8.45;;;;;;;2.27;80.22;102393.41;5029765;28;20360;-81
2023/04/05 00:50:51;;;;;;;10.25;8.00;;;;;;;2.22;80.62;102393.47;5040081;28;20105;-81
2023/04/05 00:53:20;;;;;;;13.05;8.20;;;;;;;2.20;80.69;102393.50;5041342;28;20026;-81
2023/04/05 00:55:47;;;;;;;12.30;8.38;;;;;;;2.14;80.95;102384.88;5034153;28;20399;-82
2023/04/05 00:58:13;;;;;;;13.05;8.23;;;;;;;2.15;81.11;102383.97;5041554;28;20364;-81
2023/04/05 01:00:39;;;;;;;11.98;8.38;;;;;;;2.09;81.90;102386.69;5040752;28;20045;-81
2023/04/05 01:03:06;;;;;;;12.32;9.07;;;;;;;2.04;81.12;102392.88;5033010;28;20509;-81
2023/04/05 01:05:47;;;;;;;11.13;8.52;;;;;;;2.03;81.32;102396.41;5036168;28;20103;-81
2023/04/05 01:08:25;;;;;;;14.20;8.90;;;;;;;2.00;81.95;102400.81;5046243;28;20521;-81
2023/04/05 01:10:56;;;;;;;13.95;9.40;;;;;;;1.92;81.93;102398.31;5047676;28;20025;-81
2023/04/05 01:13:24;;;;;;;11.60;8.98;;;;;;;1.89;82.12;102400.97;5042244;28;20115;-81
2023/04/05 01:15:49;;;;;;;16.05;10.32;;;;;;;1.87;82.91;102394.03;5035703;28;20448;-81
2023/04/05 01:18:15;;;;;;;16.77;9.32;;;;;;;1.84;82.50;102392.31;5041351;28;20029;-81
2023/04/05 01:20:51;;;;;;;14.88;9.50;;;;;;;1.82;82.88;102399.34;5040659;28;20541;-81
2023/04/05 01:23:25;;;;;;;17.05;9.40;;;;;;;1.79;82.61;102396.75;5029882;28;20057;-81
2023/04/05 01:26:32;;;;;;;15.82;9.93;;;;;;;1.78;82.00;102390.66;5028502;28;20026;-81
2023/04/05 01:29:16;;;;;;;16.90;9.27;;;;;;;1.69;83.25;102389.94;5010243;28;20068;-81
2023/04/05 01:32:20;;;;;;;12.27;8.85;;;;;;;1.64;83.25;102380.38;5040684;28;20033;-81
2023/04/05 01:35:03;;;;;;;12.85;9.10;;;;;;;1.60;82.77;102383.06;4967216;28;20039;-81
2023/04/05 01:37:33;;;;;;;14.07;8.80;;;;;;;1.56;83.41;102374.38;4967709;28;20054;-81
2023/04/05 01:40:00;;;;;;;12.15;9.30;;;;;;;1.54;83.55;102373.53;5016399;28;20435;-81
2023/04/05 01:42:26;;;;;;;14.80;9.63;;;;;;;1.54;83.54;102372.69;5033155;28;20075;-81
2023/04/05 01:44:53;;;;;;;11.52;8.60;;;;;;;1.51;83.61;102376.19;5023553;28;20030;-81
2023/04/05 01:47:19;;;;;;;13.15;9.43;;;;;;;1.48;83.52;102371.00;5032085;28;20038;-81
2023/04/05 01:49:45;;;;;;;13.57;9.35;;;;;;;1.48;83.50;102373.63;5036914;28;20356;-81
2023/04/05 01:52:10;;;;;;;13.48;9.15;;;;;;;1.44;83.29;102364.94;5040862;28;20021;-81
2023/04/05 01:54:35;;;;;;;12.68;8.77;;;;;;;1.43;83.75;102359.72;5040843;28;20027;-81
2023/04/05 01:57:01;;;;;;;12.60;9.18;;;;;;;1.42;83.85;102365.88;5041728;28;20025;-81
2023/04/05 01:59:26;;;;;;;15.68;9.13;;;;;;;1.39;84.03;102364.16;5040412;28;20075;-82
2023/04/05 02:01:51;;;;;;;14.13;9.43;;;;;;;1.34;84.07;102365.97;5040536;28;20026;-81
2023/04/05 02:04:17;;;;;;;12.75;9.48;;;;;;;1.33;84.38;102360.75;5040918;28;20025;-81
2023/04/05 02:06:42;;;;;;;19.52;9.32;;;;;;;1.30;84.11;102359.06;5037278;28;20030;-82
2023/04/05 02:09:07;;;;;;;15.35;9.52;;;;;;;1.26;84.63;102355.59;5022182;28;20037;-81
2023/04/05 02:11:32;;;;;;;13.07;8.98;;;;;;;1.25;84.31;102356.50;5040723;28;20107;-81
2023/04/05 02:13:58;;;;;;;12.40;9.63;;;;;;;1.21;84.31;102353.94;5027946;28;20057;-81
2023/04/05 02:16:26;;;;;;;14.43;9.40;;;;;;;1.19;84.52;102347.88;5040418;28;20116;-81
2023/04/05 02:18:56;;;;;;;11.98;9.15;;;;;;;1.11;84.85;102345.31;5032623;28;20084;-81
2023/04/05 02:21:22;;;;;;;16.98;9.75;;;;;;;1.14;85.04;102360.13;5040822;28;20022;-81
2023/04/05 02:23:48;;;;;;;13.73;9.20;;;;;;;1.11;84.96;102350.56;5035388;28;20356;-81
2023/04/05 02:26:13;;;;;;;13.20;9.23;;;;;;;1.08;84.78;102345.38;5040162;28;20036;-81
2023/04/05 02:28:38;;;;;;;13.63;10.13;;;;;;;1.06;84.75;102344.53;5038926;28;20029;-81
2023/04/05 02:31:11;;;;;;;13.95;9.18;;;;;;;1.03;84.99;102350.69;5029466;28;20109;-81
2023/04/05 02:33:37;;;;;;;12.63;9.32;;;;;;;0.99;84.73;102346.34;5040080;28;20430;-81
2023/04/05 02:36:08;;;;;;;13.80;9.82;;;;;;;0.94;84.95;102342.94;5039719;28;20048;-81
2023/04/05 02:38:34;;;;;;;15.23;9.10;;;;;;;0.97;85.21;102345.50;5028365;28;20037;-81
2023/04/05 02:40:59;;;;;;;16.95;10.15;;;;;;;0.94;85.00;102342.94;5040303;28;20032;-81
2023/04/05 02:43:25;;;;;;;12.32;9.70;;;;;;;0.90;85.55;102336.88;5045701;28;20045;-81
2023/04/05 02:45:50;;;;;;;13.10;9.63;;;;;;;0.90;85.60;102341.25;5037345;28;20109;-81
2023/04/05 02:48:16;;;;;;;15.02;9.20;;;;;;;0.87;84.70;102341.28;5042508;28;20479;-81
2023/04/05 02:50:41;;;;;;;16.13;9.88;;;;;;;0.86;84.89;102350.00;5036398;28;20471;-81
2023/04/05 02:53:06;;;;;;;17.50;9.40;;;;;;;0.83;85.32;102345.66;5025016;28;20037;-81
2023/04/05 02:55:32;;;;;;;14.50;9.70;;;;;;;0.82;85.40;102343.94;5031008;28;20065;-82
2023/04/05 02:58:01;;;;;;;12.80;9.20;;;;;;;0.78;86.11;102339.63;5036733;28;20582;-82
2023/04/05 03:00:27;;;;;;;12.27;9.63;;;;;;;0.75;85.97;102331.84;5040192;28;20168;-81
2023/04/05 03:02:53;;;;;;;12.40;9.45;;;;;;;0.72;85.51;102330.09;5035038;28;20045;-81
2023/04/05 03:05:19;;;;;;;13.77;9.18;;;;;;;0.69;86.04;102339.75;5040036;28;20057;-81
2023/04/05 03:07:45;;;;;;;11.73;8.95;;;;;;;0.68;85.61;102332.78;5039353;28;20029;-81
2023/04/05 03:10:12;;;;;;;11.30;9.13;;;;;;;0.67;85.64;102333.66;5038847;28;20021;-81
2023/04/05 03:12:38;;;;;;;14.68;8.93;;;;;;;0.65;85.59;102322.34;5036513;28;20037;-81
2023/04/05 03:15:03;;;;;;;15.30;8.93;;;;;;;0.61;85.10;102316.28;5040018;28;20036;-81
2023/04/05 03:17:29;;;;;;;10.68;8.35;;;;;;;0.59;85.85;102320.66;5037240;28;20026;-81
2023/04/05 03:19:54;;;;;;;12.20;9.23;;;;;;;0.57;86.25;102318.94;5039691;28;20029;-81
2023/04/05 03:22:20;;;;;;;13.07;8.88;;;;;;;0.58;85.79;102318.06;5039370;28;20096;-81
2023/04/05 03:24:46;;;;;;;15.85;9.15;;;;;;;0.54;86.19;102307.66;5026842;28;20116;-81
2023/04/05 03:27:12;;;;;;;14.00;9.00;;;;;;;0.53;85.87;102318.13;5039218;28;20087;-81
2023/04/05 03:29:37;;;;;;;12.23;8.95;;;;;;;0.52;86.04;102312.03;5038826;28;20018;-81
2023/04/05 03:32:02;;;;;;;15.00;9.18;;;;;;;0.49;86.30;102312.06;5039253;28;20386;-81
2023/04/05 03:34:28;;;;;;;15.90;9.35;;;;;;;0.49;86.28;102316.44;5038448;28;20057;-81
2023/04/05 03:36:56;;;;;;;12.45;8.75;;;;;;;0.48;86.42;102309.47;5039240;28;20029;-81
2023/04/05 03:39:21;;;;;;;11.57;8.80;;;;;;;0.45;86.07;102305.16;5042857;28;20380;-81
2023/04/05 03:41:47;;;;;;;12.95;9.43;;;;;;;0.43;85.93;102311.25;5042545;28;20017;-81
2023/04/05 03:44:12;;;;;;;11.88;9.52;;;;;;;0.41;85.70;102306.03;5036490;28;20029;-81
2023/04/05 03:46:37;;;;;;;12.35;9.68;;;;;;;0.39;85.96;102309.56;5040007;28;20042;-81
2023/04/05 03:49:03;;;;;;;12.98;9.40;;;;;;;0.33;85.94;102306.16;5043115;28;20033;-81
2023/04/05 03:51:28;;;;;;;11.30;8.73;;;;;;;0.33;85.76;102300.91;5042358;28;20479;-81
2023/04/05 03:53:53;;;;;;;11.38;9.15;;;;;;;0.28;85.79;102305.31;5042893;28;20112;-81
2023/04/05 03:56:19;;;;;;;16.05;9.35;;;;;;;0.27;85.89;102305.34;5041765;28;20041;-81
2023/04/05 03:58:45;;;;;;;15.05;9.70;;;;;;;0.25;86.21;102307.09;5042556;28;20033;-81
2023/04/05 04:01:11;;;;;;;13.85;9.27;;;;;;;0.23;86.27;102301.00;5042486;28;20049;-81
2023/04/05 04:03:36;;;;;;;14.88;9.10;;;;;;;0.22;86.46;102301.88;5043384;28;20109;-82
2023/04/05 04:06:03;;;;;;;12.68;8.93;;;;;;;0.21;86.35;102295.81;5038002;28;20025;-81
2023/04/05 04:08:28;;;;;;;12.93;9.32;;;;;;;0.18;86.02;102298.44;5055523;28;20022;-81
2023/04/05 04:10:54;;;;;;;12.35;8.80;;;;;;;0.16;85.79;102288.00;5054276;28;20033;-81
2023/04/05 04:13:19;;;;;;;13.95;9.20;;;;;;;0.14;85.95;102286.31;5054762;28;20052;-81
2023/04/05 04:15:45;;;;;;;13.15;9.10;;;;;;;0.13;86.23;102293.28;5057695;28;20035;-81
2023/04/05 04:18:10;;;;;;;13.75;9.30;;;;;;;0.10;86.56;102287.19;5055482;28;20028;-81
2023/04/05 04:20:36;;;;;;;12.40;9.55;;;;;;;0.08;86.51;102286.34;5033809;28;20022;-81
2023/04/05 04:23:02;;;;;;;12.05;8.45;;;;;;;0.08;85.93;102296.81;5035609;28;20030;-81
2023/04/05 04:25:29;;;;;;;13.18;8.68;;;;;;;0.05;86.67;102292.50;5051942;28;20029;-81
2023/04/05 04:27:55;;;;;;;14.93;8.93;;;;;;;0.03;87.29;102283.78;5045676;28;20017;-81
2023/04/05 04:30:21;;;;;;;12.05;8.98;;;;;;;0.02;86.84;102294.22;5032296;28;20060;-82
2023/04/05 04:32:50;;;;;;;13.05;9.05;;;;;;;-0.05;87.35;102296.03;5041075;28;20254;-81
2023/04/05 04:35:19;;;;;;;13.80;8.73;;;;;;;-0.07;87.66;102295.19;5041487;28;20023;-81
2023/04/05 04:37:45;;;;;;;12.55;8.52;;;;;;;-0.10;87.88;102288.28;5041132;28;20049;-81
2023/04/05 04:40:14;;;;;;;13.35;8.98;;;;;;;-0.11;87.92;102288.28;5035956;28;20056;-81
2023/04/05 04:42:43;;;;;;;17.83;9.50;;;;;;;-0.11;88.48;102290.91;5040313;28;20112;-81
2023/04/05 04:45:10;;;;;;;13.90;8.68;;;;;;;-0.11;88.22;102290.91;5039064;28;20021;-81
2023/04/05 04:47:36;;;;;;;13.82;9.25;;;;;;;-0.14;88.70;102294.38;5038398;28;20186;-81
2023/04/05 04:50:03;;;;;;;11.70;8.77;;;;;;;-0.15;88.70;102289.16;5041073;28;20021;-81
2023/04/05 04:52:29;;;;;;;14.32;9.90;;;;;;;-0.20;88.17;102295.31;5031997;28;20105;-81
2023/04/05 04:54:54;;;;;;;16.63;8.75;;;;;;;-0.21;88.61;102290.09;5039214;28;20049;-81
2023/04/05 04:57:19;;;;;;;13.55;9.13;;;;;;;-0.22;88.61;102294.47;5041817;28;20029;-80
2023/04/05 04:59:44;;;;;;;11.95;8.77;;;;;;;-0.25;89.18;102297.09;5040782;28;20026;-81
2023/04/05 05:02:10;;;;;;;14.45;8.80;;;;;;;-0.29;88.87;102291.91;5031246;28;20026;-81
2023/04/05 05:04:35;;;;;;;12.93;8.90;;;;;;;-0.28;89.41;102289.28;5026216;28;20040;-81
2023/04/05 05:07:01;;;;;;;13.18;9.20;;;;;;;-0.29;89.55;102295.38;5039813;28;20109;-81
2023/04/05 05:09:26;;;;;;;14.52;8.60;;;;;;;-0.30;89.36;102293.66;5026525;28;20025;-81
2023/04/05 05:11:51;;;;;;;14.57;8.85;;;;;;;-0.32;90.13;102286.69;5040787;28;20093;-81
2023/04/05 05:14:16;;;;;;;13.95;8.68;;;;;;;-0.34;90.03;102291.94;5038799;28;20022;-81
2023/04/05 05:16:43;;;;;;;9.38;7.70;;;;;;;-0.35;90.16;102294.56;5041930;28;20044;-81
2023/04/05 05:19:08;;;;;;;13.73;8.63;;;;;;;-0.36;90.23;102291.09;5039295;28;20024;-81
2023/04/05 05:21:33;;;;;;;12.93;8.57;;;;;;;-0.35;90.82;102291.94;5030675;28;20061;-81
2023/04/05 05:23:59;;;;;;;12.80;8.63;;;;;;;-0.35;90.83;102287.59;5039063;28;20025;-81
2023/04/05 05:26:25;;;;;;;14.27;8.98;;;;;;;-0.36;91.12;102287.63;5027112;28;20120;-81
2023/04/05 05:28:50;;;;;;;14.68;9.02;;;;;;;-0.35;90.61;102290.22;5028450;28;20025;-81
2023/04/05 05:31:16;;;;;;;12.30;9.25;;;;;;;-0.36;91.24;102287.63;5034473;28;20051;-81
2023/04/05 05:33:42;;;;;;;13.32;8.95;;;;;;;-0.35;90.96;102278.88;5043153;28;20024;-81
2023/04/05 05:36:07;;;;;;;13.27;9.30;;;;;;;-0.33;91.52;102285.84;5037608;28;20020;-81
2023/04/05 05:38:33;;;;;;;13.65;9.35;;;;;;;-0.35;91.55;102276.28;5035032;28;20045;-81
2023/04/05 05:40:58;;;;;;;13.82;9.13;;;;;;;-0.32;91.81;102282.34;5030003;28;20042;-81
2023/04/05 05:43:23;;;;;;;13.20;9.10;;;;;;;-0.31;91.95;102280.63;5034938;28;20093;-82
2023/04/05 05:45:49;;;;;;;15.20;9.18;;;;;;;-0.29;92.13;102287.53;5033733;28;20375;-82
2023/04/05 05:48:15;;;;;;;14.35;9.85;;;;;;;-0.29;91.94;102278.84;5034135;28;20040;-82
2023/04/05 05:50:40;;;;;;;17.40;8.93;;;;;;;-0.26;92.06;102284.06;5037114;28;20046;-82
2023/04/05 05:53:06;;;;;;;16.90;9.90;;;;;;;-0.25;92.00;102281.44;5049755;28;20060;-82
2023/04/05 05:55:32;;;;;;;17.02;9.55;;;;;;;-0.22;92.53;102280.53;5051102;28;20090;-82
2023/04/05 05:57:58;;;;;;;16.58;9.38;;;;;;;-0.20;92.22;102284.88;5051756;28;20493;-82
2023/04/05 06:00:24;;;;;;;12.60;9.68;;;;;;;-0.17;92.66;102288.31;5051378;28;20025;-81
2023/04/05 06:02:49;;;;;;;15.07;9.65;;;;;;;-0.16;92.09;102296.16;5051864;28;20033;-82
2023/04/05 06:05:14;;;;;;;15.52;9.73;;;;;;;-0.13;92.36;102287.41;5049783;28;20037;-82
2023/04/05 06:07:40;;;;;;;18.05;9.90;;;;;;;-0.11;92.53;102283.06;5037199;28;20041;-82
2023/04/05 06:10:07;;;;;;;15.23;9.93;;;;;;;-0.09;92.53;102289.97;5025263;28;20033;-81
2023/04/05 06:12:32;;;;;;;16.65;11.43;;;;;;;-0.06;93.04;102292.56;5025339;28;20034;-82
2023/04/05 06:14:59;;;;;;;14.77;10.68;;;;;;;-0.03;93.46;102289.94;5035870;28;20040;-82
2023/04/05 06:17:25;;;;;;;19.02;10.55;;;;;;;-0.01;92.51;102295.16;5033822;28;20041;-81
2023/04/05 06:19:50;;;;;;;17.15;10.73;;;;;;;0.03;93.18;102295.97;5029669;28;20033;-81
2023/04/05 06:22:16;;;;;;;17.02;10.93;;;;;;;0.05;93.31;102302.03;5026215;28;20128;-81
2023/04/05 06:24:42;;;;;;;15.77;11.52;;;;;;;0.10;93.67;102308.97;5037478;28;20451;-81
2023/04/05 06:27:07;;;;;;;20.05;11.00;;;;;;;0.14;94.18;102299.38;5033607;28;20042;-81
2023/04/05 06:29:32;;;;;;;21.83;11.93;;;;;;;0.18;94.04;102299.31;5034225;28;20104;-81
2023/04/05 06:31:59;;;;;;;15.27;11.35;;;;;;;0.22;94.10;102296.66;5033234;28;20037;-80
2023/04/05 06:34:25;;;;;;;19.15;11.55;;;;;;;0.27;94.05;102294.88;5033102;28;20049;-81
2023/04/05 06:36:50;;;;;;;17.55;10.73;;;;;;;0.34;93.95;102296.53;5033565;28;20052;-81
2023/04/05 06:39:16;;;;;;;17.52;11.82;;;;;;;0.38;93.39;102295.63;5034806;28;20490;-81
2023/04/05 06:41:41;;;;;;;16.83;12.07;;;;;;;0.42;93.28;102291.22;5034583;28;20025;-81
2023/04/05 06:44:06;;;;;;;21.02;13.05;;;;;;;0.49;92.86;102293.75;5022324;28;20105;-81
2023/04/05 06:46:32;;;;;;;21.20;13.27;;;;;;;0.55;93.19;102295.47;5029474;28;20375;-81
2023/04/05 06:48:58;;;;;;;20.20;14.05;;;;;;;0.63;92.98;102298.81;5034052;28;20032;-81
2023/04/05 06:51:25;;;;;;;21.33;13.57;;;;;;;0.69;92.44;102296.16;5031930;28;20108;-81
2023/04/05 06:53:51;;;;;;;19.48;14.18;;;;;;;0.77;92.86;102296.06;5030779;28;20065;-81
2023/04/05 06:56:16;;;;;;;21.27;14.43;;;;;;;0.83;93.27;102303.81;5034684;28;20032;-81
2023/04/05 06:58:42;;;;;;;24.35;13.98;;;;;;;0.90;93.19;102300.25;5035791;28;20026;-81
2023/04/05 07:01:08;;;;;;;21.42;15.00;;;;;;;0.99;93.66;102299.25;5024517;28;20032;-81
2023/04/05 07:03:33;;;;;;;21.45;15.40;;;;;;;1.09;93.16;102302.63;5036640;28;20025;-81
2023/04/05 07:05:59;;;;;;;23.27;14.23;;;;;;;1.18;93.52;102305.09;5038330;28;20083;-81
2023/04/05 07:08:25;;;;;;;20.23;13.57;;;;;;;1.31;93.09;102303.19;5034957;28;20049;-80
2023/04/05 07:10:51;;;;;;;21.40;14.80;;;;;;;1.45;91.49;102300.38;5028484;28;20119;-82
2023/04/05 07:13:17;;;;;;;19.40;12.73;;;;;;;1.60;88.50;102302.75;5037999;28;20030;-81
2023/04/05 07:15:44;;;;;;;21.08;12.98;;;;;;;1.80;88.56;102302.44;5036722;28;20099;-81
2023/04/05 07:18:10;;;;;;;19.15;11.27;;;;;;;2.03;86.53;102303.78;5035744;28;20108;-81
2023/04/05 07:20:35;;;;;;;20.17;11.40;;;;;;;2.27;84.58;102302.50;5026642;28;20037;-81
2023/04/05 07:23:01;;;;;;;22.27;12.25;;;;;;;2.53;83.29;102306.38;5033570;28;20037;-81
2023/04/05 07:25:26;;;;;;;17.83;11.68;;;;;;;2.81;83.49;102295.34;5041130;28;20100;-81
2023/04/05 07:27:52;;;;;;;17.42;11.85;;;;;;;3.10;82.42;102305.22;5041946;28;20025;-82
2023/04/05 07:30:17;;;;;;;22.70;11.05;;;;;;;3.38;80.55;102300.22;5042596;28;20056;-82
2023/04/05 07:32:42;;;;;;;19.50;10.82;;;;;;;3.68;79.17;102300.38;5041775;28;20026;-82
2023/04/05 07:35:08;;;;;;;18.67;10.95;;;;;;;3.93;78.07;102286.63;5040707;28;20034;-82
2023/04/05 07:37:33;;;;;;;18.70;10.23;;;;;;;4.22;74.18;102291.13;5044145;28;20084;-82
2023/04/05 07:39:58;;;;;;;13.82;9.38;;;;;;;4.51;73.50;102287.69;5036021;28;20056;-82
2023/04/05 07:42:24;;;;;;;18.08;10.30;;;;;;;4.78;71.32;102293.06;5039317;28;20029;-82
2023/04/05 07:44:50;;;;;;;19.70;9.85;;;;;;;5.11;69.48;102290.34;5042943;28;20025;-82
2023/04/05 07:47:15;;;;;;;13.75;9.15;;;;;;;5.42;69.61;102282.38;5033200;28;20026;-82
2023/04/05 07:49:41;;;;;;;16.13;9.18;;;;;;;5.79;67.23;102288.22;5040006;28;20025;-82
2023/04/05 07:52:06;;;;;;;13.52;9.00;;;;;;;6.06;64.80;102289.97;5029773;28;20030;-82
2023/04/05 07:54:32;;;;;;;12.68;8.15;;;;;;;6.32;64.97;102287.31;5038364;28;20527;-82
2023/04/05 07:56:58;;;;;;;15.98;8.82;;;;;;;6.59;63.57;102288.94;5038502;28;20104;-82
2023/04/05 07:59:23;;;;;;;14.07;8.45;;;;;;;6.80;61.18;102284.66;5033641;28;20057;-82
2023/04/05 08:01:48;;;;;;;14.05;8.57;;;;;;;7.06;59.27;102287.22;5028105;28;20037;-82
2023/04/05 08:04:14;;;;;;;15.15;8.35;;;;;;;7.36;59.90;102282.50;5035241;28;20033;-82
2023/04/05 08:06:39;;;;;;;13.63;8.68;;;;;;;7.65;59.04;102288.41;5035914;28;20080;-82
2023/04/05 08:09:07;;;;;;;17.05;9.32;;;;;;;7.86;57.24;102284.00;5021351;28;20018;-82
2023/04/05 08:11:32;;;;;;;14.95;9.23;;;;;;;8.15;56.45;102275.69;5038923;28;20754;-82
2023/04/05 08:13:57;;;;;;;16.60;9.43;;;;;;;8.45;54.66;102275.28;5040894;28;20018;-83
2023/04/05 08:16:23;;;;;;;13.60;8.68;;;;;;;8.74;52.68;102274.91;5040975;28;20099;-83
2023/04/05 08:18:48;;;;;;;20.05;8.88;;;;;;;8.97;51.40;102272.03;5041032;28;20108;-83
2023/04/05 08:21:13;;;;;;;15.45;8.75;;;;;;;9.19;51.68;102284.28;5033249;28;20112;-83
2023/04/05 08:23:38;;;;;;;14.75;8.90;;;;;;;9.39;52.41;102276.25;5023091;28;20030;-82
2023/04/05 08:26:04;;;;;;;12.90;7.43;;;;;;;9.62;50.17;102280.38;5039179;28;20056;-82
2023/04/05 08:28:29;;;;;;;13.38;7.65;;;;;;;9.85;49.50;102275.75;5057024;28;20092;-83
2023/04/05 08:30:56;;;;;;;15.63;8.25;;;;;;;10.11;48.46;102274.41;5042153;28;20064;-83
2023/04/05 08:33:21;;;;;;;11.77;6.68;;;;;;;10.23;46.59;102280.88;5044383;28;20067;-83
2023/04/05 08:35:47;;;;;;;13.93;6.38;;;;;;;10.41;46.00;102279.09;5045275;28;20029;-83
2023/04/05 08:38:12;;;;;;;11.52;6.88;;;;;;;10.65;45.76;102268.94;5038497;28;20056;-83
2023/04/05 08:40:43;;;;;;;10.05;7.03;;;;;;;10.80;45.25;102271.72;5040005;28;20100;-83
2023/04/05 08:43:21;;;;;;;11.73;6.85;;;;;;;10.99;44.63;102271.53;5037597;28;20556;-83
2023/04/05 08:45:51;;;;;;;10.80;6.72;;;;;;;11.19;43.77;102270.44;5033543;28;20022;-83
2023/04/05 08:48:18;;;;;;;8.23;6.53;;;;;;;11.39;43.07;102258.66;5032879;28;20041;-83
2023/04/05 08:50:51;;;;;;;9.43;6.53;;;;;;;11.53;43.02;102264.03;5039002;28;20041;-83
2023/04/05 08:53:17;;;;;;;9.60;6.25;;;;;;;11.72;41.46;102261.16;5035002;28;20030;-83
2023/04/05 08:55:43;;;;;;;13.80;6.95;;;;;;;11.91;42.26;102263.63;5038770;28;20080;-83
2023/04/05 08:58:13;;;;;;;11.32;6.75;;;;;;;12.01;40.32;102263.94;5040619;28;20029;-83
2023/04/05 09:00:40;;;;;;;10.65;7.07;;;;;;;12.24;40.67;102259.91;5039268;28;20120;-83
2023/04/05 09:03:07;;;;;;;11.65;7.05;;;;;;;12.39;39.27;102255.44;5038842;28;20116;-83
2023/04/05 09:05:35;;;;;;;9.48;6.57;;;;;;;12.67;41.34;102254.53;5041309;28;20445;-83
2023/04/05 09:08:01;;;;;;;12.02;6.50;;;;;;;12.85;39.54;102251.69;5031980;28;20022;-83
2023/04/05 09:10:27;;;;;;;9.13;5.80;;;;;;;12.99;36.92;102264.13;5035973;28;20052;-83
2023/04/05 09:12:53;;;;;;;8.30;6.22;;;;;;;13.08;37.83;102256.38;5041918;28;20018;-83
2023/04/05 09:15:23;;;;;;;9.02;5.88;;;;;;;13.25;37.66;102249.09;5039145;28;20538;-83
2023/04/05 09:17:49;;;;;;;10.75;7.20;;;;;;;13.35;38.32;102244.06;5055348;28;20033;-83
2023/04/05 09:20:14;;;;;;;14.80;7.90;;;;;;;13.54;38.54;102239.22;5031388;28;20056;-83
2023/04/05 09:22:44;;;;;;;10.93;7.03;;;;;;;13.72;38.08;102236.25;5035484;28;20025;-83
2023/04/05 09:25:09;;;;;;;9.43;6.45;;;;;;;13.94;36.79;102235.63;5033694;28;20042;-84
2023/04/05 09:27:35;;;;;;;8.63;6.15;;;;;;;13.99;35.16;102241.50;5020910;28;20048;-83
2023/04/05 09:30:00;;;;;;;10.02;5.90;;;;;;;14.11;36.05;102243.34;5032145;28;20025;-83
2023/04/05 09:32:28;;;;;;;12.07;7.07;;;;;;;14.13;34.60;102232.56;5031668;28;20164;-83
2023/04/05 09:34:53;;;;;;;13.13;6.88;;;;;;;14.28;34.74;102231.47;5030142;28;20152;-83
2023/04/05 09:37:20;;;;;;;11.18;6.53;;;;;;;14.45;34.40;102230.28;5038212;28;20077;-83
2023/04/05 09:39:50;;;;;;;14.98;7.22;;;;;;;14.69;34.76;102225.03;5035847;28;20376;-83
2023/04/05 09:42:18;;;;;;;10.32;6.03;;;;;;;14.72;33.79;102224.81;5037628;28;20033;-83
2023/04/05 09:45:03;;;;;;;14.02;6.57;;;;;;;15.11;37.14;102222.03;5031664;28;20372;-82
2023/04/05 09:47:31;;;;;;;9.43;6.85;;;;;;;15.21;35.20;102223.03;5035224;28;20029;-83
2023/04/05 09:50:14;;;;;;;10.48;6.72;;;;;;;15.44;36.75;102223.16;5029449;28;20037;-83
2023/04/05 09:52:40;;;;;;;14.45;7.47;;;;;;;15.62;33.56;102221.75;5032493;28;20065;-83
2023/04/05 09:55:06;;;;;;;10.15;6.60;;;;;;;15.67;32.72;102219.56;5034595;28;20107;-83
2023/04/05 09:57:42;;;;;;;8.68;7.00;;;;;;;15.79;32.84;102217.81;5030376;28;20084;-83
2023/04/05 10:00:19;;;;;;;7.95;6.30;;;;;;;15.72;32.31;102214.72;5023816;28;20021;-83
2023/04/05 10:02:48;;;;;;;11.80;6.50;;;;;;;15.66;31.09;102209.81;5031471;28;20550;-83
2023/04/05 10:05:14;;;;;;;12.98;6.70;;;;;;;15.63;31.71;102219.91;5024518;28;20029;-83
2023/04/05 10:07:44;;;;;;;8.57;6.15;;;;;;;15.89;31.10;102215.28;5029451;28;20084;-83
2023/04/05 10:10:11;;;;;;;10.05;6.38;;;;;;;15.93;30.94;102206.03;5026894;28;20018;-83
2023/04/05 10:12:38;;;;;;;9.80;6.40;;;;;;;15.86;29.68;102200.28;5035051;28;20096;-83
2023/04/05 10:15:05;;;;;;;10.90;7.00;;;;;;;16.16;31.20;102201.53;5032130;28;20088;-83
2023/04/05 10:17:37;;;;;;;9.73;6.28;;;;;;;16.24;29.80;102201.78;5030607;28;20041;-83
2023/04/05 10:20:06;;;;;;;6.90;5.80;;;;;;;16.52;29.21;102201.41;5035648;28;20025;-83
2023/04/05 10:22:35;;;;;;;11.20;6.60;;;;;;;16.68;30.51;102201.88;5031333;28;20033;-83
2023/04/05 10:25:39;;;;;;;8.60;6.28;;;;;;;16.77;32.42;102195.78;5026615;28;20037;-83
2023/04/05 10:28:10;;;;;;;8.32;6.68;;;;;;;16.63;28.46;102188.84;4993224;28;20112;-83
2023/04/05 10:30:45;;;;;;;8.43;6.63;;;;;;;16.81;27.82;102191.00;5035865;28;20064;-83
2023/04/05 10:33:21;;;;;;;10.65;6.40;;;;;;;16.76;28.89;102190.53;5022069;28;20096;-83
2023/04/05 10:35:46;;;;;;;9.60;6.18;;;;;;;16.89;26.23;102193.09;5039715;28;20025;-83
2023/04/05 10:38:36;;;;;;;9.10;6.00;;;;;;;17.32;30.05;102186.81;5038975;28;20056;-82
2023/04/05 10:41:13;;;;;;;9.05;6.82;;;;;;;17.47;26.53;102190.94;5038372;28;20112;-83
2023/04/05 10:43:40;;;;;;;9.95;6.50;;;;;;;17.45;26.79;102186.66;5034081;28;20471;-83
2023/04/05 10:46:07;;;;;;;9.70;6.78;;;;;;;17.30;26.09;102186.09;5031886;28;20053;-83
2023/04/05 10:48:54;;;;;;;9.93;7.00;;;;;;;17.38;27.04;102180.94;5037100;28;20029;-83
2023/04/05 10:51:23;;;;;;;9.50;6.82;;;;;;;17.37;27.00;102180.09;5029168;28;20037;-83
2023/04/05 10:53:49;;;;;;;10.27;6.95;;;;;;;17.75;26.93;102185.88;5038706;28;20080;-83
2023/04/05 10:56:14;;;;;;;8.07;6.85;;;;;;;17.82;26.50;102173.63;5037939;28;20029;-83
2023/04/05 10:58:41;;;;;;;10.73;6.50;;;;;;;17.98;27.08;102173.16;5036529;28;20422;-83
2023/04/05 11:01:08;;;;;;;10.77;6.70;;;;;;;17.88;25.32;102172.25;5038669;28;20025;-83
2023/04/05 11:03:47;;;;;;;10.13;6.80;;;;;;;18.29;28.16;102165.94;5037960;28;20463;-83
2023/04/05 11:06:34;;;;;;;9.00;6.57;;;;;;;18.52;28.13;102157.66;5038070;28;20033;-83
2023/04/05 11:09:10;;;;;;;9.70;6.43;;;;;;;18.51;27.25;102153.28;5037984;28;20117;-83
2023/04/05 11:11:43;;;;;;;9.32;6.80;;;;;;;18.60;25.10;102155.16;5038781;28;20048;-83
2023/04/05 11:14:17;;;;;;;8.18;6.53;;;;;;;18.67;26.50;102147.38;5038579;28;20029;-83
2023/04/05 11:16:46;;;;;;;11.30;7.10;;;;;;;18.80;25.10;102147.97;5044440;28;20030;-82
2023/04/05 11:19:11;;;;;;;8.13;6.22;;;;;;;18.99;25.14;102140.91;5034833;28;20083;-83
2023/04/05 11:21:36;;;;;;;10.43;6.82;;;;;;;18.96;24.46;102144.72;5038768;28;20096;-82
2023/04/05 11:24:10;;;;;;;9.05;6.70;;;;;;;18.77;24.04;102144.66;5037526;28;20036;-82